Time;durP1;ratioP1;P1;durP2;ratioP2;P2;SDS_P1;SDS_P2;PMS_P1;PMS_P2;Temp;Humidity;BMP_temperature;BMP_pressure;BME280_temperature;BME280_humidity;BME280_pressure;Samples;Min_cycle;Max_cycle;Signal;HPM_P1;HPM_P2
2023/02/01 00:01:08;;;;;;;3.60;3.40;;;-0.80;98.50;;;;;;6123383;23;20426;-75
2023/02/01 00:03:35;;;;;;;4.25;4.05;;;-0.80;97.50;;;;;;6097301;23;20439;-76
2023/02/01 00:06:03;;;;;;;4.30;4.10;;;-0.70;97.20;;;;;;6098101;23;20407;-76
2023/02/01 00:08:30;;;;;;;3.75;3.55;;;-0.80;96.80;;;;;;6096695;23;20387;-76
2023/02/01 00:10:59;;;;;;;4.65;4.43;;;-0.70;96.50;;;;;;6098158;23;20879;-77
2023/02/01 00:13:28;;;;;;;4.00;3.80;;;-0.80;98.80;;;;;;6122527;23;20694;-76
2023/02/01 00:16:02;;;;;;;4.88;4.57;;;-0.80;98.90;;;;;;6123806;23;20383;-76
2023/02/01 00:18:33;;;;;;;4.57;4.35;;;-0.80;98.20;;;;;;6096570;23;20386;-76
2023/02/01 00:21:00;;;;;;;4.32;4.13;;;-0.80;97.50;;;;;;6098098;23;20428;-76
2023/02/01 00:23:27;;;;;;;5.65;5.25;;;-0.80;96.90;;;;;;6096825;23;20376;-76
2023/02/01 00:25:54;;;;;;;4.75;4.45;;;-0.70;96.80;;;;;;6097839;23;20379;-76
2023/02/01 00:28:24;;;;;;;4.28;4.07;;;-0.80;96.90;;;;;;6098152;23;20431;-76
2023/02/01 00:31:02;;;;;;;4.15;3.95;;;-0.80;97.80;;;;;;6096943;23;20375;-77
2023/02/01 00:33:30;;;;;;;5.90;5.50;;;-0.90;98.20;;;;;;6096666;23;20388;-76
2023/02/01 00:36:08;;;;;;;6.07;5.57;;;-1.00;99.90;;;;;;6097604;23;20788;-75
2023/02/01 00:38:37;;;;;;;5.75;5.35;;;-1.00;99.90;;;;;;6096808;23;20720;-77
2023/02/01 00:41:24;;;;;;;5.20;4.90;;;-1.00;99.90;;;;;;6123492;23;20376;-76
2023/02/01 00:43:54;;;;;;;4.97;4.68;;;-0.90;99.90;;;;;;6097139;23;20371;-75
2023/02/01 00:46:21;;;;;;;4.85;4.53;;;-0.90;99.90;;;;;;6074066;23;20375;-75
2023/02/01 00:48:49;;;;;;;4.80;4.50;;;-0.90;99.90;;;;;;6096515;23;20379;-77
2023/02/01 00:51:21;;;;;;;4.75;4.45;;;-0.90;99.90;;;;;;6097073;23;20435;-77
2023/02/01 00:53:48;;;;;;;4.57;4.28;;;-0.90;99.90;;;;;;6096827;23;20379;-76
2023/02/01 00:56:15;;;;;;;4.43;4.13;;;-0.80;99.90;;;;;;6097449;23;20383;-76
2023/02/01 00:58:42;;;;;;;4.38;4.13;;;-0.80;99.70;;;;;;6095913;23;20411;-76
2023/02/01 01:01:16;;;;;;;3.63;3.42;;;-0.80;99.30;;;;;;6097926;23;20383;-76
2023/02/01 01:03:46;;;;;;;3.78;3.58;;;-0.80;98.60;;;;;;6096631;23;20384;-76
2023/02/01 01:06:15;;;;;;;4.40;4.20;;;-0.80;97.90;;;;;;6097446;23;20372;-76
2023/02/01 01:08:43;;;;;;;4.13;3.90;;;-0.80;99.00;;;;;;6095782;23;20444;-76
2023/02/01 01:11:20;;;;;;;3.60;3.40;;;-0.90;99.90;;;;;;6099019;23;20716;-76
2023/02/01 01:13:51;;;;;;;3.58;3.40;;;-0.90;99.90;;;;;;6095830;23;20379;-76
2023/02/01 01:16:19;;;;;;;3.67;3.47;;;-0.90;99.10;;;;;;6096749;23;20760;-77
2023/02/01 01:18:47;;;;;;;3.70;3.50;;;-0.90;98.60;;;;;;6096079;23;20704;-76
2023/02/01 01:21:15;;;;;;;3.30;3.10;;;-1.00;99.20;;;;;;6097387;23;20376;-76
2023/02/01 01:23:44;;;;;;;2.90;2.80;;;-1.10;99.90;;;;;;6096385;23;20372;-76
2023/02/01 01:26:16;;;;;;;3.47;3.28;;;-1.10;99.60;;;;;;6121373;23;20403;-76
2023/02/01 01:28:44;;;;;;;3.70;3.50;;;-1.10;99.30;;;;;;6096354;23;20455;-77
2023/02/01 01:31:12;;;;;;;3.30;3.13;;;-1.20;99.90;;;;;;6097531;23;20379;-75
2023/02/01 01:33:40;;;;;;;3.42;3.22;;;-1.20;99.70;;;;;;6092864;23;20387;-76
2023/02/01 01:36:11;;;;;;;3.40;3.20;;;-1.10;99.20;;;;;;6097635;23;20379;-76
2023/02/01 01:38:41;;;;;;;3.50;3.30;;;-1.10;98.70;;;;;;6096033;23;20395;-76
2023/02/01 01:41:12;;;;;;;3.30;3.17;;;-1.10;99.90;;;;;;6097460;23;20371;-76
2023/02/01 01:43:49;;;;;;;3.00;2.80;;;-1.10;99.90;;;;;;6095766;23;20383;-76
2023/02/01 01:46:19;;;;;;;3.65;3.45;;;-1.10;99.90;;;;;;6097392;23;20387;-76
2023/02/01 01:48:58;;;;;;;3.17;3.08;;;-1.00;99.40;;;;;;6121241;23;20388;-75
2023/02/01 01:51:28;;;;;;;3.00;2.88;;;-1.10;98.60;;;;;;6096726;23;20443;-77
2023/02/01 01:54:12;;;;;;;3.08;2.97;;;-1.10;98.30;;;;;;6096300;23;20451;-76
2023/02/01 01:56:40;;;;;;;3.50;3.30;;;-1.20;98.30;;;;;;6096646;23;20415;-76
2023/02/01 01:59:09;;;;;;;3.20;3.00;;;-1.20;97.70;;;;;;6097226;23;20690;-76
2023/02/01 03:19:33;;;;;;;2.97;2.88;;;-1.90;99.90;;;;;;6116303;23;20783;-76
2023/02/01 03:22:07;;;;;;;2.90;2.80;;;-1.90;99.90;;;;;;6124016;23;20840;-80
2023/02/01 03:24:44;;;;;;;2.80;2.70;;;-1.90;99.90;;;;;;6123653;23;20364;-80
2023/02/01 03:27:20;;;;;;;3.20;3.10;;;-2.00;99.90;;;;;;6123883;23;20404;-80
2023/02/01 03:30:05;;;;;;;2.80;2.70;;;-2.00;99.90;;;;;;6122647;23;20422;-80
2023/02/01 03:32:58;;;;;;;2.70;2.60;;;-2.00;99.90;;;;;;6121967;23;20689;-80
2023/02/01 03:35:33;;;;;;;2.70;2.60;;;-2.00;99.90;;;;;;6152845;23;20749;-80
2023/02/01 03:38:32;;;;;;;2.85;2.75;;;-2.10;99.90;;;;;;6127505;23;20370;-80
2023/02/01 03:41:09;;;;;;;2.85;2.75;;;-2.30;99.90;;;;;;6111062;23;20834;-80
2023/02/01 03:43:51;;;;;;;2.70;2.60;;;-2.30;99.90;;;;;;6126603;23;20386;-80
2023/02/01 03:46:27;;;;;;;2.42;2.33;;;-2.20;99.90;;;;;;6127801;23;20406;-80
2023/02/01 03:48:55;;;;;;;2.05;1.95;;;-2.10;99.90;;;;;;6126720;23;20433;-80
2023/02/01 03:51:22;;;;;;;2.28;2.17;;;-2.10;99.90;;;;;;6153544;23;20425;-80
2023/02/01 03:53:51;;;;;;;2.25;2.10;;;-2.00;99.90;;;;;;6152591;23;20397;-80
2023/02/01 03:56:21;;;;;;;2.25;2.15;;;-2.00;99.90;;;;;;6128072;23;20381;-80
2023/02/01 03:58:58;;;;;;;2.70;2.60;;;-2.00;99.90;;;;;;6126305;23;20383;-79
2023/02/01 04:01:27;;;;;;;3.08;2.90;;;-2.10;99.90;;;;;;6127794;23;20378;-79
2023/02/01 04:03:54;;;;;;;2.60;2.50;;;-2.20;99.90;;;;;;6151720;23;20378;-80
2023/02/01 04:06:21;;;;;;;2.57;2.47;;;-2.20;99.90;;;;;;6128165;23;20405;-80
2023/02/01 04:08:48;;;;;;;2.65;2.55;;;-2.20;99.90;;;;;;6126276;23;20382;-78
2023/02/01 04:11:16;;;;;;;2.37;2.27;;;-2.30;99.90;;;;;;6127558;23;20737;-79
2023/02/01 04:13:43;;;;;;;2.60;2.50;;;-2.20;99.90;;;;;;6126243;23;20506;-79
2023/02/01 04:16:10;;;;;;;3.13;3.03;;;-2.20;99.90;;;;;;6127747;23;20406;-79
2023/02/01 04:18:37;;;;;;;3.00;2.90;;;-2.40;99.90;;;;;;6127399;23;20429;-79
2023/02/01 04:21:04;;;;;;;3.85;3.65;;;-2.40;99.90;;;;;;6126891;23;20382;-79
2023/02/01 04:23:31;;;;;;;3.38;3.17;;;-2.50;99.90;;;;;;6128057;23;20433;-80
2023/02/01 04:26:03;;;;;;;2.90;2.80;;;-2.50;99.90;;;;;;6127317;23;20373;-80
2023/02/01 04:28:31;;;;;;;2.85;2.75;;;-2.50;99.90;;;;;;6126447;23;20406;-80
2023/02/01 04:30:58;;;;;;;2.75;2.65;;;-2.40;99.90;;;;;;6126963;23;20394;-79
2023/02/01 04:33:25;;;;;;;2.80;2.70;;;-2.40;99.90;;;;;;6127091;23;20750;-81
2023/02/01 04:35:52;;;;;;;6.43;6.03;;;-2.30;99.90;;;;;;6152591;23;20378;-80
2023/02/01 04:38:19;;;;;;;10.77;10.07;;;-2.30;99.90;;;;;;6127410;23;20477;-78
2023/02/01 04:40:49;;;;;;;10.05;9.35;;;-2.20;99.90;;;;;;6151076;23;20386;-79
2023/02/01 04:43:17;;;;;;;6.85;6.45;;;-2.20;99.90;;;;;;6127104;23;20414;-79
2023/02/01 04:45:48;;;;;;;4.20;4.00;;;-2.20;99.90;;;;;;6151830;23;20374;-79
2023/02/01 04:48:17;;;;;;;3.33;3.15;;;-2.20;99.90;;;;;;6127375;23;20373;-79
2023/02/01 04:50:47;;;;;;;3.30;3.20;;;-2.20;99.90;;;;;;6127137;23;20405;-80
2023/02/01 04:53:15;;;;;;;3.35;3.17;;;-2.20;99.90;;;;;;6151884;23;20374;-79
2023/02/01 04:55:43;;;;;;;3.60;3.30;;;-2.20;99.90;;;;;;6127675;23;20766;-81
2023/02/01 04:58:10;;;;;;;3.13;3.03;;;-2.30;99.90;;;;;;6150920;23;20433;-80
2023/02/01 05:00:37;;;;;;;2.78;2.67;;;-2.30;99.90;;;;;;6152867;23;20418;-80
2023/02/01 05:03:04;;;;;;;2.47;2.38;;;-2.40;99.90;;;;;;6151642;23;20374;-80
2023/02/01 05:05:31;;;;;;;2.78;2.67;;;-2.40;99.90;;;;;;6127051;23;20401;-80
2023/02/01 05:07:58;;;;;;;2.55;2.45;;;-2.40;99.90;;;;;;6125874;23;20428;-80
2023/02/01 05:10:25;;;;;;;2.60;2.50;;;-2.40;99.90;;;;;;6127260;23;20797;-80
2023/02/01 05:15:37;;;;;;;2.58;2.47;;;-2.50;99.90;;;;;;6152665;23;20374;-80
2023/02/01 05:18:04;;;;;;;2.90;2.80;;;-2.60;99.90;;;;;;6125590;23;20374;-79
2023/02/01 05:20:31;;;;;;;3.07;2.93;;;-2.50;99.90;;;;;;6127180;23;20794;-79
2023/02/01 05:22:58;;;;;;;3.22;3.13;;;-2.50;99.90;;;;;;6126227;23;20366;-80
2023/02/01 05:25:25;;;;;;;3.72;3.53;;;-2.50;99.90;;;;;;6127257;23;20370;-80
2023/02/01 05:27:53;;;;;;;3.67;3.47;;;-2.50;99.90;;;;;;6126283;23;20377;-79
2023/02/01 05:30:20;;;;;;;3.95;3.75;;;-2.40;99.90;;;;;;6127212;23;20765;-80
2023/02/01 05:32:52;;;;;;;3.63;3.50;;;-2.50;99.90;;;;;;6126096;23;20382;-80
2023/02/01 05:35:19;;;;;;;3.53;3.33;;;-2.50;99.90;;;;;;6127334;23;20421;-80
2023/02/01 05:37:46;;;;;;;3.10;3.00;;;-2.40;99.90;;;;;;6127327;23;20366;-80
2023/02/01 05:40:13;;;;;;;3.22;3.08;;;-2.50;99.90;;;;;;6126278;23;20366;-79
2023/02/01 05:42:40;;;;;;;2.90;2.80;;;-2.50;99.90;;;;;;6127021;23;20725;-79
2023/02/01 05:45:07;;;;;;;2.80;2.70;;;-2.50;99.90;;;;;;6150333;23;20433;-79
2023/02/01 05:47:34;;;;;;;2.83;2.73;;;-2.50;99.90;;;;;;6127562;23;20429;-81
2023/02/01 05:50:01;;;;;;;3.15;2.95;;;-2.50;99.90;;;;;;6150899;23;20461;-82
2023/02/01 05:52:28;;;;;;;3.50;3.30;;;-2.50;99.90;;;;;;6126903;23;20370;-80
2023/02/01 05:54:55;;;;;;;3.10;3.00;;;-2.50;99.90;;;;;;6125501;23;20370;-80
2023/02/01 05:57:22;;;;;;;2.70;2.60;;;-2.50;99.90;;;;;;6127227;23;20369;-80
2023/02/01 05:59:49;;;;;;;2.92;2.83;;;-2.60;99.90;;;;;;6126825;23;20472;-80
2023/02/01 06:02:16;;;;;;;3.53;3.33;;;-2.60;99.90;;;;;;6125797;23;20366;-80
2023/02/01 06:04:43;;;;;;;3.63;3.43;;;-2.60;99.90;;;;;;6127003;23;20455;-80
2023/02/01 06:07:10;;;;;;;3.70;3.55;;;-2.60;99.90;;;;;;6125518;23;20382;-80
2023/02/01 06:09:37;;;;;;;4.50;4.30;;;-2.90;99.90;;;;;;6152358;23;20427;-80
2023/02/01 06:12:04;;;;;;;3.97;3.78;;;-2.80;99.90;;;;;;6125515;23;20711;-80
2023/02/01 06:14:31;;;;;;;4.32;4.13;;;-2.80;99.90;;;;;;6152097;23;20378;-80
2023/02/01 06:16:58;;;;;;;4.55;4.35;;;-2.80;99.90;;;;;;6125147;23;20428;-81
2023/02/01 06:19:25;;;;;;;4.00;3.80;;;-2.70;99.90;;;;;;6126593;23;20490;-80
2023/02/01 06:21:52;;;;;;;3.30;3.20;;;-2.70;99.90;;;;;;6126085;23;20389;-80
2023/02/01 06:24:19;;;;;;;3.30;3.20;;;-2.80;99.90;;;;;;6126020;23;20914;-79
2023/02/01 06:26:46;;;;;;;2.95;2.85;;;-2.80;99.90;;;;;;6126530;23;20402;-81
2023/02/01 06:29:15;;;;;;;3.13;2.92;;;-2.80;99.90;;;;;;6125250;23;20377;-81
2023/02/01 06:31:42;;;;;;;3.97;3.78;;;-2.80;99.90;;;;;;6126112;23;20405;-81
2023/02/01 06:34:09;;;;;;;3.10;2.90;;;-3.00;99.90;;;;;;6125471;23;20377;-79
2023/02/01 06:36:36;;;;;;;3.40;3.28;;;-3.00;99.90;;;;;;6126535;23;20406;-80
2023/02/01 06:39:03;;;;;;;3.80;3.70;;;-3.00;99.90;;;;;;6125425;23;20377;-80
2023/02/01 06:41:30;;;;;;;3.85;3.65;;;-2.90;99.90;;;;;;6126027;23;20853;-81
2023/02/01 06:43:57;;;;;;;3.78;3.58;;;-2.90;99.90;;;;;;6125667;23;20378;-80
2023/02/01 06:46:24;;;;;;;3.60;3.45;;;-2.90;99.90;;;;;;6126262;23;20890;-80
2023/02/01 06:48:51;;;;;;;3.70;3.50;;;-2.90;99.90;;;;;;6125805;23;20397;-80
2023/02/01 06:51:20;;;;;;;3.50;3.30;;;-2.90;99.90;;;;;;6125233;23;20374;-80
2023/02/01 06:53:47;;;;;;;3.58;3.38;;;-2.90;99.90;;;;;;6125893;23;20457;-80
2023/02/01 06:56:14;;;;;;;3.25;3.15;;;-2.90;99.90;;;;;;6126805;23;20428;-80
2023/02/01 06:58:41;;;;;;;2.83;2.73;;;-2.90;99.90;;;;;;6127027;23;20712;-80
2023/02/01 07:01:10;;;;;;;3.00;2.90;;;-3.00;99.90;;;;;;6127087;23;20440;-80
2023/02/01 07:03:37;;;;;;;3.80;3.60;;;-3.20;99.90;;;;;;6128275;23;20420;-81
2023/02/01 07:06:05;;;;;;;4.38;4.07;;;-3.20;99.90;;;;;;6127876;23;20369;-81
2023/02/01 07:08:34;;;;;;;4.45;4.25;;;-3.10;99.90;;;;;;6153560;23;20761;-80
2023/02/01 07:11:10;;;;;;;4.90;4.60;;;-3.10;99.90;;;;;;6126237;23;20366;-80
2023/02/01 07:13:37;;;;;;;4.85;4.55;;;-3.00;99.90;;;;;;6128049;23;20746;-80
2023/02/01 07:16:07;;;;;;;4.65;4.38;;;-3.00;99.90;;;;;;6151580;23;20366;-80
2023/02/01 07:18:34;;;;;;;4.60;4.32;;;-2.90;99.90;;;;;;6122052;23;20407;-81
2023/02/01 07:21:00;;;;;;;3.80;3.60;;;-2.90;99.90;;;;;;6114318;23;20848;-80
2023/02/01 07:23:28;;;;;;;3.63;3.42;;;-2.80;99.90;;;;;;6118200;23;20385;-80
2023/02/01 07:25:59;;;;;;;3.40;3.20;;;-2.80;99.90;;;;;;6102401;23;20447;-81
2023/02/01 07:28:29;;;;;;;3.22;3.13;;;-2.80;99.90;;;;;;6119543;23;20746;-80
2023/02/01 07:31:02;;;;;;;3.97;3.78;;;-2.90;99.90;;;;;;6122931;23;20442;-81
2023/02/01 07:33:30;;;;;;;4.00;3.80;;;-2.90;99.90;;;;;;6121828;23;20847;-80
2023/02/01 07:35:57;;;;;;;4.05;3.85;;;-2.80;99.90;;;;;;6123532;23;20402;-79
2023/02/01 07:38:24;;;;;;;4.13;3.92;;;-2.80;99.90;;;;;;6121371;23;20423;-80
2023/02/01 07:40:50;;;;;;;4.30;4.10;;;-2.70;99.90;;;;;;6114720;23;20744;-80
2023/02/01 07:43:17;;;;;;;4.20;4.00;;;-2.70;99.90;;;;;;6119785;23;20417;-81
2023/02/01 07:45:51;;;;;;;4.35;4.15;;;-2.60;99.90;;;;;;6121319;23;20474;-80
2023/02/01 07:48:19;;;;;;;4.93;4.63;;;-2.50;99.90;;;;;;6125543;23;20371;-80
2023/02/01 07:50:46;;;;;;;4.57;4.28;;;-2.40;99.90;;;;;;6130040;23;20383;-82
2023/02/01 07:53:13;;;;;;;4.00;3.70;;;-2.10;99.90;;;;;;6127302;23;20677;-80
2023/02/01 07:55:40;;;;;;;3.47;3.38;;;-1.80;99.90;;;;;;6123383;23;20406;-81
2023/02/01 07:58:07;;;;;;;4.35;4.15;;;-1.30;99.90;;;;;;6094909;23;20379;-79
2023/02/01 08:03:19;;;;;;;4.28;4.07;;;-0.70;99.90;;;;;;6124997;23;20381;-80
2023/02/01 08:05:46;;;;;;;4.50;4.30;;;-0.30;99.90;;;;;;6125549;23;20428;-80
2023/02/01 08:08:12;;;;;;;4.32;4.13;;;0.00;99.90;;;;;;6125519;23;20430;-80
2023/02/01 08:10:39;;;;;;;3.63;3.42;;;0.40;99.90;;;;;;6126022;23;20715;-80
2023/02/01 08:13:07;;;;;;;3.30;3.10;;;0.60;99.90;;;;;;6138615;23;20375;-79
2023/02/01 08:15:33;;;;;;;3.22;3.13;;;0.90;99.60;;;;;;6136203;23;20414;-80
2023/02/01 08:18:02;;;;;;;3.37;3.27;;;1.20;98.70;;;;;;6137915;23;20368;-79
2023/02/01 08:20:29;;;;;;;3.65;3.45;;;1.40;97.00;;;;;;6112066;23;20758;-79
2023/02/01 08:22:56;;;;;;;3.37;3.17;;;1.70;96.00;;;;;;6133206;23;20376;-80
2023/02/01 08:25:23;;;;;;;3.20;3.10;;;1.90;94.90;;;;;;6138895;23;20390;-79
2023/02/01 08:27:51;;;;;;;2.80;2.70;;;2.20;94.80;;;;;;6132421;23;20482;-79
2023/02/01 08:30:18;;;;;;;2.63;2.53;;;2.40;92.00;;;;;;6090142;23;20372;-79
2023/02/01 08:32:45;;;;;;;3.20;3.00;;;2.70;91.40;;;;;;6140353;23;20368;-79
2023/02/01 08:35:12;;;;;;;2.90;2.80;;;3.00;88.70;;;;;;6138874;23;20372;-79
2023/02/01 08:37:39;;;;;;;2.80;2.70;;;3.20;90.00;;;;;;6115853;23;20392;-79
2023/02/01 08:40:07;;;;;;;2.70;2.60;;;3.30;90.80;;;;;;6141253;23;20379;-79
2023/02/01 08:42:52;;;;;;;2.75;2.65;;;3.60;90.00;;;;;;6138388;23;20368;-79
2023/02/01 08:45:28;;;;;;;2.92;2.83;;;3.80;87.10;;;;;;6139005;23;20388;-79
2023/02/01 08:47:56;;;;;;;2.93;2.83;;;3.80;87.00;;;;;;6140399;23;20380;-79
2023/02/01 08:50:23;;;;;;;2.90;2.80;;;4.00;88.00;;;;;;6144553;23;20360;-79
2023/02/01 08:52:51;;;;;;;2.47;2.38;;;4.20;85.80;;;;;;6143532;23;20703;-78
2023/02/01 08:55:18;;;;;;;2.80;2.70;;;4.40;84.80;;;;;;6135849;23;20375;-80
2023/02/01 08:57:45;;;;;;;2.85;2.75;;;4.60;82.80;;;;;;6140834;23;20396;-80
2023/02/01 09:00:15;;;;;;;2.45;2.35;;;4.80;80.30;;;;;;6140518;23;20391;-78
2023/02/01 09:02:43;;;;;;;3.40;3.20;;;5.00;79.20;;;;;;6139493;23;20367;-79
2023/02/01 09:05:10;;;;;;;3.33;3.15;;;5.10;76.30;;;;;;6117728;23;20752;-79
2023/02/01 09:07:38;;;;;;;4.63;2.70;;;5.30;75.30;;;;;;6138567;23;20394;-79
2023/02/01 09:10:05;;;;;;;3.00;2.80;;;5.40;74.20;;;;;;6141835;23;20383;-79
2023/02/01 09:12:33;;;;;;;3.00;2.80;;;5.30;74.50;;;;;;6140816;23;20403;-79
2023/02/01 09:15:00;;;;;;;3.70;3.50;;;5.40;75.20;;;;;;6142807;23;20379;-79
2023/02/01 09:17:28;;;;;;;3.47;3.28;;;5.50;74.20;;;;;;6140188;23;20375;-79
2023/02/01 09:20:00;;;;;;;3.95;3.75;;;5.70;73.10;;;;;;6140114;23;20380;-79
2023/02/01 09:22:27;;;;;;;3.30;3.20;;;5.90;71.10;;;;;;6087912;23;20447;-79
2023/02/01 09:24:53;;;;;;;3.70;3.50;;;6.00;69.50;;;;;;6140205;23;20379;-79
2023/02/01 09:27:21;;;;;;;3.47;3.30;;;6.10;69.10;;;;;;6137380;23;20378;-79
2023/02/01 09:29:52;;;;;;;3.10;2.90;;;6.20;69.20;;;;;;6136979;23;20901;-79
2023/02/01 09:32:21;;;;;;;2.88;2.78;;;6.20;67.90;;;;;;6135830;23;20387;-79
2023/02/01 09:34:49;;;;;;;2.50;2.40;;;6.30;68.80;;;;;;6136354;23;20447;-80
2023/02/01 09:37:16;;;;;;;3.10;3.00;;;6.30;69.80;;;;;;6137437;23;20376;-79
2023/02/01 09:39:43;;;;;;;2.60;2.50;;;6.40;71.50;;;;;;6137492;23;20383;-79
2023/02/01 09:42:47;;;;;;;2.80;2.70;;;6.50;67.90;;;;;;6139368;23;20403;-79
2023/02/01 09:45:21;;;;;;;2.75;2.65;;;6.50;67.90;;;;;;6156496;23;20383;-79
2023/02/01 09:47:56;;;;;;;2.80;2.70;;;6.80;67.50;;;;;;6133348;23;20380;-79
2023/02/01 09:50:49;;;;;;;2.70;2.60;;;6.90;66.40;;;;;;6134003;23;20371;-79
2023/02/01 09:53:27;;;;;;;2.80;2.70;;;7.20;66.00;;;;;;6139207;23;20506;-79
2023/02/01 09:56:06;;;;;;;2.90;2.70;;;7.30;65.00;;;;;;6137524;23;20391;-79
2023/02/01 09:58:47;;;;;;;2.67;2.58;;;7.40;63.30;;;;;;6136390;23;20406;-79
2023/02/01 10:01:22;;;;;;;3.00;2.90;;;7.50;63.40;;;;;;6133233;23;20376;-79
2023/02/01 10:04:01;;;;;;;3.28;3.17;;;7.70;63.40;;;;;;6136683;23;20386;-78
2023/02/01 10:06:43;;;;;;;3.30;3.10;;;7.80;62.90;;;;;;6134023;23;20379;-79
2023/02/01 10:09:31;;;;;;;2.90;2.80;;;8.00;62.90;;;;;;6137024;23;20979;-79
2023/02/01 10:12:32;;;;;;;3.83;3.63;;;8.10;62.70;;;;;;6137553;23;20390;-79
2023/02/01 10:15:41;;;;;;;3.80;3.60;;;8.20;61.60;;;;;;6139845;23;20386;-78
2023/02/01 10:18:43;;;;;;;3.53;3.33;;;8.40;60.60;;;;;;6138919;23;20379;-79
2023/02/01 10:21:39;;;;;;;3.70;3.50;;;8.70;60.70;;;;;;6140648;23;20376;-79
2023/02/01 10:24:28;;;;;;;3.20;3.10;;;8.80;59.00;;;;;;6141904;23;20368;-80
2023/02/01 10:27:16;;;;;;;3.65;3.45;;;8.90;59.10;;;;;;6139829;23;20479;-79
2023/02/01 10:29:46;;;;;;;4.00;3.80;;;9.00;59.50;;;;;;6141229;23;20395;-78
2023/02/01 10:32:17;;;;;;;3.88;3.67;;;9.00;58.20;;;;;;6141120;23;20380;-79
2023/02/01 10:34:50;;;;;;;4.43;4.18;;;9.10;56.80;;;;;;6143413;23;20375;-79
2023/02/01 10:37:34;;;;;;;4.97;4.68;;;9.30;55.50;;;;;;6139946;23;20367;-79
2023/02/01 10:40:16;;;;;;;5.07;4.78;;;9.30;54.30;;;;;;6140060;23;20398;-77
2023/02/01 10:42:44;;;;;;;4.88;4.57;;;9.40;53.20;;;;;;6142922;23;20405;-78
2023/02/01 10:45:19;;;;;;;5.20;4.90;;;9.50;53.60;;;;;;6145036;23;20382;-79
2023/02/01 10:47:49;;;;;;;5.10;4.80;;;9.60;50.70;;;;;;6147924;23;20370;-78
2023/02/01 10:50:28;;;;;;;4.38;4.18;;;9.80;52.40;;;;;;6147653;23;20378;-78
2023/02/01 10:53:02;;;;;;;3.20;3.00;;;10.10;51.30;;;;;;6147935;23;20707;-78
2023/02/01 10:55:51;;;;;;;2.80;2.70;;;10.20;48.90;;;;;;6145093;23;20401;-78
2023/02/01 10:58:28;;;;;;;2.72;2.63;;;10.40;48.40;;;;;;6171689;23;20374;-78
2023/02/01 11:01:03;;;;;;;2.40;2.30;;;10.60;47.50;;;;;;6148243;23;20375;-78
2023/02/01 11:03:30;;;;;;;1.85;1.75;;;10.80;48.20;;;;;;6149992;23;20433;-78
2023/02/01 11:05:57;;;;;;;2.38;2.28;;;11.00;47.10;;;;;;6146292;23;20386;-78
2023/02/01 11:08:24;;;;;;;2.88;2.67;;;11.10;46.10;;;;;;6142951;23;20409;-77
2023/02/01 11:11:11;;;;;;;2.65;2.55;;;11.20;45.60;;;;;;6147381;23;20389;-77
2023/02/01 11:13:39;;;;;;;3.50;3.30;;;11.40;46.10;;;;;;6172356;23;20374;-77
2023/02/01 11:16:10;;;;;;;2.50;2.40;;;11.50;44.80;;;;;;6148298;23;20759;-78
2023/02/01 11:18:38;;;;;;;1.50;1.40;;;11.60;44.30;;;;;;6146101;23;20377;-78
2023/02/01 11:21:07;;;;;;;1.75;1.65;;;11.80;44.10;;;;;;6168200;23;20374;-77
2023/02/01 11:23:42;;;;;;;0.98;0.98;;;12.00;43.40;;;;;;6169109;23;20381;-77
2023/02/01 11:26:19;;;;;;;1.20;1.20;;;12.00;42.30;;;;;;6171869;23;20369;-78
2023/02/01 11:28:58;;;;;;;1.00;1.00;;;12.10;42.40;;;;;;6147096;23;20361;-77
2023/02/01 11:31:27;;;;;;;0.90;0.90;;;12.20;42.10;;;;;;6142960;23;20382;-78
2023/02/01 11:34:06;;;;;;;0.90;0.90;;;12.20;41.40;;;;;;6143983;23;20429;-77
2023/02/01 11:36:35;;;;;;;0.95;0.95;;;12.30;40.80;;;;;;6141472;23;20458;-78
2023/02/01 11:39:30;;;;;;;0.90;0.90;;;12.40;40.80;;;;;;6142952;23;21377;-77
2023/02/01 11:42:05;;;;;;;0.80;0.80;;;12.30;40.10;;;;;;6143171;23;20377;-77
2023/02/01 11:44:36;;;;;;;0.90;0.90;;;12.60;39.40;;;;;;6146503;23;20406;-78
2023/02/01 11:47:19;;;;;;;0.70;0.70;;;12.60;39.80;;;;;;6176543;23;20467;-77
2023/02/01 11:49:48;;;;;;;0.90;0.90;;;12.80;39.40;;;;;;6174731;23;20413;-77
2023/02/01 11:52:40;;;;;;;0.98;0.98;;;12.80;39.50;;;;;;6148117;23;20377;-76
2023/02/01 11:55:26;;;;;;;0.90;0.90;;;12.90;40.00;;;;;;6172804;23;20377;-77
2023/02/01 11:58:17;;;;;;;1.00;1.00;;;12.70;39.00;;;;;;6173432;23;20731;-78
2023/02/01 12:00:53;;;;;;;1.13;1.10;;;12.80;39.90;;;;;;6145874;23;20374;-77
2023/02/01 12:03:25;;;;;;;1.10;1.10;;;13.00;40.00;;;;;;6146253;23;20401;-77
2023/02/01 12:06:15;;;;;;;1.00;1.00;;;13.30;40.40;;;;;;6166948;23;20389;-77
2023/02/01 12:09:12;;;;;;;1.00;1.00;;;13.40;40.00;;;;;;6144047;23;20376;-78
2023/02/01 12:12:03;;;;;;;1.50;1.17;;;13.20;40.60;;;;;;6172278;23;20362;-78
2023/02/01 12:14:30;;;;;;;1.40;1.10;;;13.30;41.00;;;;;;6144723;23;20385;-78
2023/02/01 12:17:34;;;;;;;1.20;1.10;;;13.40;40.20;;;;;;6136732;23;20423;-77
2023/02/01 12:20:20;;;;;;;1.25;1.25;;;13.00;40.90;;;;;;6154741;23;20370;-78
2023/02/01 12:23:32;;;;;;;1.10;1.10;;;13.10;41.80;;;;;;6130092;23;20417;-77
2023/02/01 12:26:12;;;;;;;1.00;1.00;;;13.20;41.20;;;;;;6128373;23;20358;-77
2023/02/01 12:29:00;;;;;;;0.90;0.90;;;13.20;40.40;;;;;;6126583;23;20401;-79
2023/02/01 12:32:02;;;;;;;1.17;1.08;;;13.30;41.00;;;;;;6157600;23;20405;-79
2023/02/01 12:34:52;;;;;;;1.00;1.00;;;13.60;41.90;;;;;;6059770;23;20379;-77
2023/02/01 12:37:27;;;;;;;1.73;0.90;;;13.50;41.60;;;;;;6143543;23;20378;-77
2023/02/01 12:40:28;;;;;;;0.80;0.80;;;13.80;41.90;;;;;;6152915;23;20827;-77
2023/02/01 12:43:17;;;;;;;0.90;0.90;;;14.00;41.40;;;;;;6125120;23;20382;-77
2023/02/01 12:45:56;;;;;;;0.88;0.88;;;14.20;40.80;;;;;;6129347;23;20381;-77
2023/02/01 12:48:40;;;;;;;0.80;0.80;;;14.50;40.90;;;;;;6128513;23;20707;-77
2023/02/01 12:51:17;;;;;;;0.70;0.70;;;14.40;41.10;;;;;;6129105;23;20432;-78
2023/02/01 12:54:10;;;;;;;0.70;0.70;;;14.10;41.90;;;;;;6154045;23;20379;-76
2023/02/01 12:56:45;;;;;;;0.70;0.70;;;14.30;41.50;;;;;;6153553;23;20435;-77
2023/02/01 12:59:35;;;;;;;0.75;0.75;;;14.60;40.80;;;;;;6129933;23;20684;-77
2023/02/01 13:02:29;;;;;;;0.60;0.60;;;14.70;40.50;;;;;;6128984;23;28455;-77
2023/02/01 13:05:16;;;;;;;0.60;0.60;;;14.70;40.70;;;;;;6131018;23;20370;-77
2023/02/01 13:08:09;;;;;;;0.60;0.60;;;14.70;40.70;;;;;;6155322;23;20378;-78
2023/02/01 13:10:41;;;;;;;0.50;0.50;;;14.80;39.30;;;;;;6132354;23;20702;-77
2023/02/01 13:13:38;;;;;;;0.70;0.70;;;14.90;37.80;;;;;;6156458;23;20401;-77
2023/02/01 13:16:34;;;;;;;0.60;0.60;;;15.00;38.20;;;;;;6129762;23;20519;-77
2023/02/01 13:19:17;;;;;;;0.50;0.50;;;15.00;38.10;;;;;;6128476;23;20710;-78
2023/02/01 13:21:49;;;;;;;0.60;0.60;;;15.10;38.90;;;;;;6156308;23;20406;-76
2023/02/01 13:24:36;;;;;;;0.80;0.80;;;15.00;38.10;;;;;;6135395;23;20456;-77
2023/02/01 13:27:03;;;;;;;0.85;0.70;;;15.00;37.90;;;;;;6139633;23;20373;-77
2023/02/01 13:29:33;;;;;;;0.70;0.70;;;14.90;39.30;;;;;;6140586;23;20366;-77
2023/02/01 13:32:23;;;;;;;0.82;0.82;;;14.80;38.70;;;;;;6138888;23;20385;-77
2023/02/01 13:35:49;;;;;;;1.10;1.00;;;14.80;39.20;;;;;;6145734;23;20393;-77
2023/02/01 13:38:46;;;;;;;0.80;0.80;;;14.30;40.20;;;;;;6141141;23;20389;-78
2023/02/01 13:41:30;;;;;;;1.20;1.00;;;14.40;40.90;;;;;;6142091;23;20370;-77
2023/02/01 13:44:26;;;;;;;0.80;0.80;;;14.50;40.80;;;;;;6140900;23;20390;-76
2023/02/01 13:46:58;;;;;;;0.90;0.80;;;14.40;41.50;;;;;;6137795;23;20374;-77
2023/02/01 13:49:28;;;;;;;0.70;0.70;;;14.60;40.30;;;;;;6142127;23;20398;-77
2023/02/01 13:51:57;;;;;;;1.20;1.00;;;14.70;40.60;;;;;;6143709;23;20442;-76
2023/02/01 13:54:30;;;;;;;0.83;0.83;;;14.60;40.70;;;;;;6167989;23;20447;-77
2023/02/01 13:56:59;;;;;;;1.05;1.00;;;14.30;41.20;;;;;;6142856;23;20389;-77
2023/02/01 13:59:50;;;;;;;0.90;0.90;;;14.60;41.10;;;;;;6139344;23;20424;-77
2023/02/01 14:02:42;;;;;;;0.90;0.90;;;14.70;40.90;;;;;;6122191;23;20385;-76
2023/02/01 14:05:11;;;;;;;0.88;0.88;;;14.80;40.60;;;;;;6125629;23;20386;-78
2023/02/01 14:08:04;;;;;;;0.70;0.70;;;14.60;40.80;;;;;;6126018;23;20405;-77
2023/02/01 14:10:47;;;;;;;0.65;0.65;;;14.60;40.20;;;;;;6126095;23;20461;-77
2023/02/01 14:13:38;;;;;;;0.75;0.75;;;14.60;40.00;;;;;;6134429;23;20458;-77
2023/02/01 14:16:06;;;;;;;0.70;0.70;;;14.50;39.80;;;;;;6143122;23;20370;-77
2023/02/01 14:18:41;;;;;;;0.60;0.60;;;14.60;39.20;;;;;;6143672;23;20398;-78
2023/02/01 14:21:27;;;;;;;0.90;0.90;;;14.30;40.30;;;;;;6142225;23;20377;-78
2023/02/01 14:23:54;;;;;;;0.80;0.80;;;14.20;38.90;;;;;;6143288;23;20405;-78
2023/02/01 14:26:42;;;;;;;0.73;0.73;;;14.10;39.40;;;;;;6144929;23;20378;-77
2023/02/01 14:29:15;;;;;;;0.68;0.68;;;14.10;39.30;;;;;;6167363;23;20392;-78
2023/02/01 14:32:02;;;;;;;0.70;0.70;;;13.90;39.60;;;;;;6144662;23;20445;-78
2023/02/01 14:34:35;;;;;;;1.20;0.70;;;14.10;40.40;;;;;;6143083;23;20397;-77
2023/02/01 14:37:06;;;;;;;0.70;0.70;;;14.00;38.60;;;;;;6145223;23;20409;-78
2023/02/01 14:39:41;;;;;;;0.50;0.50;;;14.10;38.50;;;;;;6142777;23;20370;-79
2023/02/01 14:42:21;;;;;;;0.70;0.70;;;14.30;38.20;;;;;;6145090;23;20406;-78
2023/02/01 14:44:49;;;;;;;0.70;0.70;;;14.30;37.80;;;;;;6143337;23;20405;-78